Check time and date!

LGTT 250430Z 01015G25KT 9999 FEW018 BKN025 11/06 Q1020 RMK OVC070
TAF LGTT 250400Z 2506/2515 03016KT 9999 FEW018 SCT025 PROB30 TEMPO 2506/2512 5000 RA SCT018 BKN025 TEMPO 2506/2515 03018G28KT
--------------------------------------
LGMG 250400Z 2506/2515 35012KT 9999 FEW025 TEMPO 2506/2515 36012G22KT FEW020 BKN025
TAF LGMG 250400Z 2506/2515 35012KT 9999 FEW025 TEMPO 2506/2515 36012G22KT FEW020 BKN025
--------------------------------------
LGTG 250420Z 34008KT 9999 FEW020 BKN030 11/05 Q1022
--------------------------------------
LGEL 250420Z 36008KT 9999 FEW015 BKN025 12/06 Q1020 RMK BKN080
--------------------------------------
LGAV 250420Z 35018KT 9999 FEW020 BKN030 12/06 Q1021 RMK NOSIG
--------------------------------------
LGAT 250430Z AUTO 03006G17KT 280V150 //// // ////// 13/05 Q1021 RE//
--------------------------------------
METAR LGAD 250420Z 03004KT 9999 FEW020 10/04 Q1020
METAR LGAL 250420Z 02013KT 9999 FEW030 08/M02 Q1025
METAR LGAV 250420Z 35018KT 9999 FEW020 BKN030 12/06 Q1021 NOSIG
METAR LGBL 250420Z 25007KT 9999 SCT030 SCT080 10/07 Q1024
METAR LGEL 250420Z 36008KT 9999 FEW015 BKN025 12/06 Q1020
METAR LGHI 250350Z 03023G33KT 9999 FEW025 13/05 Q1016
METAR LGIO 250420Z AUTO 05012KT 020V100 //// // ////// 10/01 Q1022 RE//
METAR LGIR 250420Z 35015G25KT 9999 FEW018 BKN025 BKN080 16/10 Q1016 NOSIG
METAR LGKL 250420Z 32004KT CAVOK 11/03 Q1019
METAR LGKO 250420Z 35010KT 9999 FEW025 14/06 Q1012
METAR LGKP 250430Z AUTO 31020KT //// // ////// 16/09 Q1012 RE//
METAR LGKR 250420Z 26002KT CAVOK 09/08 Q1020 NOSIG
METAR LGKZ 250420Z AUTO 35007KT //// // ////// 03/M03 Q1025 RE//
METAR LGLM 250420Z 05018G30KT 9999 FEW020 11/03 Q1023
METAR LGLR 250350Z 00000KT 8000 FEW010 BKN030 OVC060 06/05 Q1025 BLU
METAR LGMT 250420Z 01010KT 9999 FEW025 13/08 Q1021
METAR LGPA 250420Z AUTO 36020G30KT //// // ////// 14/08 Q1016 RERA
METAR LGPZ 250420Z 06010KT 9999 FEW025 13/04 Q1021
METAR LGRP 250420Z 32004KT 9999 FEW020 17/12 Q1011 NOSIG
METAR LGRX 250420Z 03011KT 9999 FEW030 14/05 Q1020
METAR LGSA 250420Z 04006KT 9999 BKN025 BKN080 14/09 Q1017
METAR LGSM 250350Z 03012KT 9999 FEW025 12/07 Q1014
METAR LGSO 250420Z AUTO 36024G36KT //// -RA ////// 14/09 Q1018 RE//
METAR LGTG 250350Z 33006KT 9999 FEW020 BKN030 11/05 Q1022 BLU
METAR LGTS 250420Z VRB02KT 9999 SCT025 04/02 Q1026 NOSIG

--------------------------------------
TAF LGAD 250200Z 2503/2512 02014KT 9999 FEW020
TAF LGAL 250200Z 2503/2512 04015KT 9999 FEW020 TEMPO 2503/2508 03015G25KT
TAF LGAV 242300Z 2500/2524 03023G33KT 9999 SCT035 SCT070 TEMPO 2500/2512 5000 RA SCT012 BKN020 BECMG 2519/2521 03018G28KT
TAF LGBL 250200Z 2503/2512 32008KT 9999 FEW020 BKN030 BECMG 2504/2506 FEW020 SCT030
TAF LGEL 242300Z 2500/2524 36013KT 9999 FEW015 SCT025 TEMPO 2500/2512 BKN020 TEMPO 2500/2516 36013G25KT
TAF LGIO 250200Z 2503/2512 VRB03KT 3000 BR SCT010 PROB40 TEMPO 2503/2507 0200 FG BKN002 BECMG 2507/2509 9999 FEW020
TAF LGIR 242300Z 2500/2524 35016KT 9999 SCT025 SCT080 TEMPO 2500/2512 35016G26KT FEW018 BKN025 BKN080 PROB40 TEMPO 2500/2509 5000 RA FEW018TCU BKN020 BKN070
TAF LGKC 250200Z 2503/2512 03022G32KT 9999 SCT025 TEMPO 2503/2512 BKN025 PROB30 TEMPO 2506/2512 5000 RA SCT010 BKN020
TAF LGKF 250200Z 2503/2512 08012KT 9999 FEW012 TEMPO 2503/2508 09013G23KT FEW012 SCT070
TAF LGKL 250200Z 2503/2512 34006KT 9999 FEW020
TAF LGKO 242300Z 2500/2524 36013KT 9999 FEW020 TEMPO 2500/2506 36013G23KT
TAF LGKP 250200Z 2503/2512 32012KT 9999 SCT018
TAF LGKR 242300Z 2500/2524 VRB05KT 9999 FEW020 TEMPO 2500/2504 09010KT
TAF LGKV 242300Z 2500/2524 06010KT 9999 FEW025 TEMPO 2500/2506 06010G20KT
TAF LGLM 250200Z 2503/2512 04020G35KT 9999 FEW015 SCT025
TAF LGLR 250200Z 2503/2512 08008KT 9999 FEW020 BKN030 BECMG 2504/2506 FEW020 SCT030
TAF LGMK 250200Z 2503/2512 01025G35KT 9999 SCT018 TEMPO 2503/2508 BKN018
TAF LGMT 250200Z 2503/2512 01014KT 9999 SCT025 TEMPO 2503/2508 02014G24KT BKN020
TAF LGPZ 242300Z 2500/2524 08010KT 9999 FEW020 TEMPO 2500/2504 07010G20KT
TAF LGRP 242300Z 2500/2524 VRB05KT 9999 SCT020 PROB40 TEMPO 2500/2512 5000 RA FEW016TCU BKN020 PROB30 TEMPO 2506/2512 5000 TSRA FEW016CB BKN020
TAF LGRX 250200Z 2503/2512 05014KT 9999 FEW020
TAF LGSA 242300Z 2500/2524 02013G23KT 9999 SCT025 SCT080 PROB40 TEMPO 2500/2518 5000 RA FEW018TCU BKN020 BKN080
TAF LGSK 250200Z 2503/2512 04018G28KT 9999 SCT020 PROB30 TEMPO 2503/2508 5000 RA SCT010 BKN020
TAF LGSM 250200Z 2503/2512 02015KT 9999 FEW020 TEMPO 2503/2506 02015G25KT
TAF LGSR 242300Z 2500/2524 36017G27KT 9999 SCT018 TEMPO 2500/2506 BKN018
TAF LGST 250200Z 2503/2512 32015KT 9999 FEW018 SCT025 TEMPO 2503/2509 34015G25KT PROB30 TEMPO 2503/2508 5000 RA FEW018TCU BKN025 BKN080
TAF LGSY 250200Z 2503/2512 03020G35KT 9999 FEW020 BKN025
TAF LGTG 250200Z 2503/2512 35015KT 9999 FEW020 BKN030
TAF LGTL 250200Z 2503/2512 35015KT 9999 FEW010 BKN020 PROB30 TEMPO 2503/2512 5000 RA FEW010 BKN020 BKN080
TAF LGTS 242300Z 2500/2524 35010KT 9999 SCT030 BECMG 2504/2506 FEW030 BECMG 2508/2510 VRB03KT
TAF LGZA 250200Z 2503/2512 05012KT 9999 FEW018 TEMPO 2503/2508 04012G22KT